Arlington Heights, Illinois
Current Conditions -  °F | °C
As of 12:13 PM on Sunday 25 Jan 2015 (Local Time) from KPWK Reporting Station
Light Snow Light Snow  
Wind Chill: 17°   Ceiling: 1500
Heat Index: 29°   Visibility: 1.7mi
Dew Point: 24°   Wind: 16mph
Humidity: 82%   Direction: 20°NNE
Pressure: 29.85"   Gusts: 25mph
Location:  42.14°N, 87.99°W
Report Text: KPWK 251813Z 02014G22KT 1 3/4SM -SN OVC015 M02/M04 A2985 RMK AO2 P0000 T10171044
Loading
Personal Weather Stations






























Interactive Weather Map New forecast layout! Learn more

10-Day Weather Forecast

Advertisements
Track Severe Weather on mobile